createdAt,value
2022-11-29T00:02:40.541Z,3.89
2022-11-29T00:05:27.686Z,3.85
2022-11-29T00:08:14.506Z,3.92
2022-11-29T00:11:09.232Z,3.88
2022-11-29T00:13:55.991Z,4.18
2022-11-29T00:16:43.211Z,3.98
2022-11-29T00:19:34.339Z,3.90
2022-11-29T00:22:22.824Z,4.12
2022-11-29T00:25:09.676Z,4.17
2022-11-29T00:27:56.508Z,3.83
2022-11-29T00:30:43.395Z,3.97
2022-11-29T00:33:30.267Z,4.05
2022-11-29T00:36:17.889Z,4.22
2022-11-29T00:39:05.480Z,4.23
2022-11-29T00:41:52.395Z,3.86
2022-11-29T00:44:39.139Z,3.82
2022-11-29T00:47:25.908Z,3.80
2022-11-29T00:50:12.748Z,4.12
2022-11-29T00:52:59.519Z,4.03
2022-11-29T00:55:53.496Z,3.94
2022-11-29T00:58:43.383Z,3.86
2022-11-29T01:01:30.263Z,3.77
2022-11-29T01:04:17.681Z,3.83
2022-11-29T01:07:04.427Z,3.90
2022-11-29T01:09:51.241Z,3.76
2022-11-29T01:12:39.515Z,3.76
2022-11-29T01:15:26.618Z,3.74
2022-11-29T01:18:13.418Z,3.67
2022-11-29T01:21:22.002Z,3.69
2022-11-29T01:24:08.799Z,3.85
2022-11-29T01:26:55.585Z,4.12
2022-11-29T01:29:42.418Z,4.21
2022-11-29T01:32:29.289Z,3.98
2022-11-29T01:35:16.098Z,4.13
2022-11-29T01:38:02.883Z,4.34
2022-11-29T01:41:04.740Z,4.43
2022-11-29T01:44:04.590Z,4.52
2022-11-29T01:46:51.920Z,4.52
2022-11-29T01:49:43.396Z,4.38
2022-11-29T01:52:32.751Z,4.50
2022-11-29T01:55:19.670Z,4.64
2022-11-29T01:58:08.804Z,4.54
2022-11-29T02:00:57.338Z,4.46
2022-11-29T02:03:44.215Z,4.35
2022-11-29T02:06:31.431Z,4.54
2022-11-29T02:09:20.582Z,4.46
2022-11-29T02:12:26.032Z,4.41
2022-11-29T02:15:39.954Z,4.54
2022-11-29T02:18:33.788Z,4.69
2022-11-29T02:21:32.533Z,4.51
2022-11-29T02:24:37.936Z,4.55
2022-11-29T02:27:50.097Z,4.46
2022-11-29T02:30:52.132Z,4.60
2022-11-29T02:33:41.791Z,4.52
2022-11-29T02:36:56.793Z,4.51
2022-11-29T02:40:15.571Z,4.52
2022-11-29T02:43:30.982Z,4.53
2022-11-29T02:46:51.108Z,4.44
2022-11-29T02:49:50.165Z,4.41
2022-11-29T02:53:05.910Z,4.66
2022-11-29T02:56:01.539Z,4.36
2022-11-29T02:58:59.730Z,4.63
2022-11-29T03:02:31.328Z,4.44
2022-11-29T03:05:27.167Z,4.59
2022-11-29T03:08:23.193Z,4.60
2022-11-29T03:11:42.082Z,4.34
2022-11-29T03:14:42.441Z,3.93
2022-11-29T03:17:47.979Z,3.91
2022-11-29T03:21:00.882Z,4.11
2022-11-29T03:23:50.946Z,3.98
2022-11-29T03:26:43.105Z,3.82
2022-11-29T03:29:38.162Z,3.89
2022-11-29T03:32:35.008Z,4.04
2022-11-29T03:35:02.336Z,4.00
2022-11-29T03:37:53.178Z,3.87
2022-11-29T03:40:24.439Z,3.87
2022-11-29T03:42:54.950Z,3.98
2022-11-29T03:45:46.142Z,4.11
2022-11-29T03:48:31.677Z,4.11
2022-11-29T03:51:05.615Z,4.30
2022-11-29T03:53:35.366Z,4.34
2022-11-29T03:56:22.177Z,4.49
2022-11-29T03:59:13.315Z,4.29
2022-11-29T04:01:48.788Z,4.49
2022-11-29T04:04:39.467Z,4.19
2022-11-29T04:07:16.278Z,4.36
2022-11-29T04:10:17.273Z,4.35
2022-11-29T04:13:08.706Z,4.24
2022-11-29T04:15:57.061Z,3.92
2022-11-29T04:18:57.382Z,4.09
2022-11-29T04:21:50.443Z,3.98
2022-11-29T04:24:22.852Z,3.89
2022-11-29T04:27:34.690Z,4.09
2022-11-29T04:30:07.410Z,3.96
2022-11-29T04:33:06.941Z,4.01
2022-11-29T04:35:51.837Z,4.04
2022-11-29T04:38:28.956Z,4.02
2022-11-29T04:41:30.738Z,4.04
2022-11-29T04:44:05.984Z,4.12
2022-11-29T04:47:06.372Z,4.05
2022-11-29T04:49:44.920Z,4.01
2022-11-29T04:52:33.647Z,3.98
2022-11-29T04:55:39.701Z,4.23
2022-11-29T04:58:15.272Z,4.19
2022-11-29T05:01:09.716Z,4.11
2022-11-29T05:03:45.669Z,3.99
2022-11-29T05:06:23.693Z,4.12
2022-11-29T05:09:01.090Z,4.04
2022-11-29T05:11:38.733Z,4.04
2022-11-29T05:14:30.782Z,4.04
2022-11-29T05:17:24.686Z,4.09
2022-11-29T05:19:54.273Z,4.22
2022-11-29T05:22:28.311Z,4.35
2022-11-29T05:25:33.369Z,4.47
2022-11-29T05:28:11.395Z,4.56
2022-11-29T05:31:11.690Z,4.69
2022-11-29T05:34:03.152Z,4.62
2022-11-29T05:37:00.674Z,4.77
2022-11-29T05:39:38.119Z,4.87
2022-11-29T05:42:21.974Z,4.50
2022-11-29T05:45:08.676Z,4.74
2022-11-29T05:47:52.349Z,4.81
2022-11-29T05:50:29.214Z,4.76
2022-11-29T05:53:54.283Z,4.85
2022-11-29T05:56:23.774Z,4.85
2022-11-29T05:58:59.960Z,4.98
2022-11-29T06:01:36.991Z,4.99
2022-11-29T06:04:21.205Z,5.06
2022-11-29T06:07:03.629Z,5.12
2022-11-29T06:09:37.620Z,4.92
2022-11-29T06:12:20.663Z,5.04
2022-11-29T06:15:03.309Z,4.97
2022-11-29T06:17:58.747Z,4.72
2022-11-29T06:20:42.192Z,4.77
2022-11-29T06:23:08.613Z,4.95
2022-11-29T06:26:03.521Z,4.74
2022-11-29T06:28:36.582Z,4.88
2022-11-29T06:31:19.763Z,4.98
2022-11-29T06:34:09.557Z,5.11
2022-11-29T06:36:44.795Z,5.05
2022-11-29T06:39:11.750Z,5.04
2022-11-29T06:41:38.288Z,5.12
2022-11-29T06:44:05.428Z,4.97
2022-11-29T06:47:01.464Z,4.97
2022-11-29T06:49:32.528Z,4.88
2022-11-29T06:52:27.406Z,5.04
2022-11-29T06:55:22.971Z,4.97
2022-11-29T06:58:03.244Z,4.83
2022-11-29T07:00:56.575Z,4.89
2022-11-29T07:03:36.779Z,5.02
2022-11-29T07:06:20.390Z,5.15
2022-11-29T07:08:49.458Z,5.16
2022-11-29T07:11:16.619Z,5.22
2022-11-29T07:13:43.544Z,4.96
2022-11-29T07:16:37.027Z,5.18
2022-11-29T07:19:17.623Z,5.18
2022-11-29T07:21:48.415Z,5.31
2022-11-29T07:24:35.976Z,5.36
2022-11-29T07:27:15.607Z,5.13
2022-11-29T07:30:18.767Z,5.29
2022-11-29T07:33:17.554Z,5.33
2022-11-29T07:36:11.904Z,5.21
2022-11-29T07:39:09.161Z,5.06
2022-11-29T07:41:59.840Z,5.36
2022-11-29T07:44:35.824Z,5.42
2022-11-29T07:47:02.363Z,5.36
2022-11-29T07:49:29.062Z,5.49
2022-11-29T07:51:56.134Z,5.63
2022-11-29T07:54:22.930Z,5.55
2022-11-29T07:56:49.437Z,5.45
2022-11-29T07:59:16.252Z,5.55
2022-11-29T08:01:42.836Z,5.59
2022-11-29T08:04:09.463Z,5.60
2022-11-29T08:06:36.600Z,5.62
2022-11-29T08:09:04.587Z,5.62
2022-11-29T08:11:31.127Z,5.80
2022-11-29T08:13:59.552Z,5.89
2022-11-29T08:16:26.214Z,5.82
2022-11-29T08:18:52.987Z,5.82
2022-11-29T08:21:19.476Z,6.00
2022-11-29T08:23:47.566Z,5.72
2022-11-29T08:26:15.432Z,5.83
2022-11-29T08:28:42.016Z,5.84
2022-11-29T08:31:11.232Z,5.77
2022-11-29T08:33:40.587Z,5.30
2022-11-29T08:36:10.922Z,5.15
2022-11-29T08:38:37.425Z,5.26
2022-11-29T08:41:11.290Z,4.96
2022-11-29T08:43:37.805Z,5.06
2022-11-29T08:46:04.641Z,4.94
2022-11-29T08:48:31.200Z,4.78
2022-11-29T08:50:57.980Z,4.96
2022-11-29T08:53:43.632Z,4.89
2022-11-29T08:59:03.387Z,4.77
2022-11-29T09:01:50.138Z,4.82
2022-11-29T09:04:17.078Z,5.08
2022-11-29T09:06:44.357Z,4.81
2022-11-29T09:09:10.826Z,5.18
2022-11-29T09:11:38.475Z,4.96
2022-11-29T09:14:06.909Z,5.09
2022-11-29T09:16:36.233Z,5.22
2022-11-29T09:19:04.869Z,5.48
2022-11-29T09:21:33.365Z,5.59
2022-11-29T09:24:02.090Z,5.93
2022-11-29T09:26:32.592Z,5.82
2022-11-29T09:29:01.208Z,5.52
2022-11-29T09:31:28.985Z,5.78
2022-11-29T09:33:55.970Z,6.04
2022-11-29T09:36:28.205Z,6.20
2022-11-29T09:38:56.526Z,6.21
2022-11-29T09:41:32.753Z,5.94
2022-11-29T09:44:30.057Z,5.91
2022-11-29T09:47:14.742Z,5.52
2022-11-29T09:49:58.836Z,5.52
2022-11-29T09:52:35.999Z,5.47
2022-11-29T09:55:24.708Z,5.42
2022-11-29T09:57:54.503Z,5.40
2022-11-29T10:00:21.271Z,5.58
2022-11-29T10:03:02.786Z,5.49
2022-11-29T10:05:41.137Z,5.31
2022-11-29T10:08:16.276Z,5.25
2022-11-29T10:10:46.665Z,5.43
2022-11-29T10:13:23.181Z,5.33
2022-11-29T10:15:56.492Z,5.29
2022-11-29T10:18:28.981Z,5.24
2022-11-29T10:20:59.867Z,5.32
2022-11-29T10:23:34.741Z,5.28
2022-11-29T10:26:01.383Z,5.35
2022-11-29T10:28:31.328Z,5.38
2022-11-29T10:31:29.077Z,5.51
2022-11-29T10:33:59.274Z,5.78
2022-11-29T10:36:29.118Z,6.03
2022-11-29T10:38:59.415Z,5.57
2022-11-29T10:41:26.795Z,5.90
2022-11-29T10:43:56.698Z,6.06
2022-11-29T10:46:35.453Z,5.92
2022-11-29T10:49:06.229Z,6.32
2022-11-29T10:51:33.902Z,6.01
2022-11-29T10:54:26.737Z,6.36
2022-11-29T10:56:55.130Z,6.35
2022-11-29T10:59:24.774Z,6.58
2022-11-29T11:01:52.030Z,6.70
2022-11-29T11:04:29.928Z,6.31
2022-11-29T11:07:01.312Z,5.92
2022-11-29T11:09:42.849Z,5.82
2022-11-29T11:12:15.478Z,6.05
2022-11-29T11:14:43.812Z,6.04
2022-11-29T11:17:32.814Z,6.05
2022-11-29T11:20:05.593Z,5.79
2022-11-29T11:22:33.805Z,5.93
2022-11-29T11:25:06.670Z,5.95
2022-11-29T11:27:42.011Z,5.97
2022-11-29T11:30:22.313Z,5.71
2022-11-29T11:33:07.384Z,6.04
2022-11-29T11:35:34.340Z,6.17
2022-11-29T11:38:00.775Z,5.96
2022-11-29T11:40:30.466Z,5.75
2022-11-29T11:43:01.411Z,5.75
2022-11-29T11:45:36.714Z,5.25
2022-11-29T11:48:11.610Z,5.44
2022-11-29T11:50:44.795Z,5.52
2022-11-29T11:53:25.213Z,5.75
2022-11-29T11:56:03.042Z,6.08
2022-11-29T11:58:47.386Z,6.34
2022-11-29T12:01:36.485Z,6.65
2022-11-29T12:04:11.505Z,6.48
2022-11-29T12:06:53.491Z,6.00
2022-11-29T12:09:41.224Z,6.17
2022-11-29T12:12:15.713Z,5.87
2022-11-29T12:15:02.300Z,5.99
2022-11-29T12:17:36.912Z,5.80
2022-11-29T12:20:28.281Z,5.61
2022-11-29T12:23:12.983Z,5.58
2022-11-29T12:26:19.217Z,5.78
2022-11-29T12:28:59.272Z,5.80
2022-11-29T12:31:47.871Z,6.26
2022-11-29T12:34:48.558Z,6.37
2022-11-29T12:37:30.879Z,6.10
2022-11-29T12:40:11.454Z,5.86
2022-11-29T12:42:56.791Z,5.87
2022-11-29T12:45:53.548Z,6.24
2022-11-29T12:48:22.956Z,6.37
2022-11-29T12:51:21.949Z,6.38
2022-11-29T12:54:06.859Z,6.44
2022-11-29T12:56:57.461Z,6.55
2022-11-29T12:59:42.778Z,6.43
2022-11-29T13:02:28.137Z,6.58
2022-11-29T13:05:14.687Z,6.40
2022-11-29T13:08:01.442Z,6.11
2022-11-29T13:10:48.388Z,5.72
2022-11-29T13:13:38.229Z,5.94
2022-11-29T13:16:39.153Z,5.73
2022-11-29T13:19:20.855Z,5.84
2022-11-29T13:22:05.981Z,5.99
2022-11-29T13:24:47.506Z,5.87
2022-11-29T13:27:23.420Z,5.88
2022-11-29T13:29:50.101Z,6.09
2022-11-29T13:32:31.677Z,6.23
2022-11-29T13:35:05.598Z,6.18
2022-11-29T13:37:43.877Z,6.31
2022-11-29T13:40:31.650Z,5.93
2022-11-29T13:43:13.612Z,6.09
2022-11-29T13:46:21.843Z,6.03
2022-11-29T13:48:53.969Z,6.08
2022-11-29T13:51:40.522Z,6.31
2022-11-29T13:54:25.285Z,6.41
2022-11-29T13:57:05.280Z,6.37
2022-11-29T13:59:34.652Z,6.47
2022-11-29T14:02:21.918Z,6.26
2022-11-29T14:04:48.595Z,6.40
2022-11-29T14:07:19.552Z,6.52
2022-11-29T14:10:01.116Z,6.52
2022-11-29T14:12:36.967Z,6.47
2022-11-29T14:15:18.260Z,6.50
2022-11-29T14:18:02.319Z,6.57
2022-11-29T14:20:28.721Z,6.60
2022-11-29T14:23:04.404Z,6.45
2022-11-29T14:25:54.961Z,6.40
2022-11-29T14:28:21.419Z,6.40
2022-11-29T14:30:49.768Z,6.40
2022-11-29T14:33:55.268Z,6.35
2022-11-29T14:36:41.997Z,6.19
2022-11-29T14:39:44.183Z,6.10
2022-11-29T14:42:18.709Z,5.93
2022-11-29T14:44:54.423Z,6.13
2022-11-29T14:47:49.801Z,6.23
2022-11-29T14:50:30.700Z,6.32
2022-11-29T14:52:57.575Z,6.36
2022-11-29T14:55:24.045Z,6.49
2022-11-29T14:57:50.529Z,6.52
2022-11-29T15:00:21.773Z,6.34
2022-11-29T15:02:49.793Z,6.22
2022-11-29T15:05:24.484Z,6.29
2022-11-29T15:08:20.150Z,6.26
2022-11-29T15:10:54.033Z,6.25
2022-11-29T15:13:27.561Z,6.23
2022-11-29T15:16:09.352Z,6.25
2022-11-29T15:18:55.438Z,6.21
2022-11-29T15:21:34.183Z,6.35
2022-11-29T15:24:10.520Z,6.22
2022-11-29T15:26:37.063Z,6.19
2022-11-29T15:29:14.765Z,5.96
2022-11-29T15:31:43.245Z,6.20
2022-11-29T15:34:23.466Z,6.22
2022-11-29T15:36:49.993Z,6.23
2022-11-29T15:39:36.664Z,6.21
2022-11-29T15:42:08.820Z,6.01
2022-11-29T15:44:35.429Z,6.21
2022-11-29T15:47:25.423Z,6.24
2022-11-29T15:49:53.941Z,6.16
2022-11-29T15:52:34.276Z,6.11
2022-11-29T15:55:04.167Z,6.16
2022-11-29T15:57:40.891Z,6.18
2022-11-29T16:00:15.657Z,6.19
2022-11-29T16:02:53.149Z,6.26
2022-11-29T16:05:32.816Z,6.20
2022-11-29T16:08:15.702Z,6.27
2022-11-29T16:10:49.319Z,6.13
2022-11-29T16:13:31.454Z,6.25
2022-11-29T16:16:19.333Z,6.23
2022-11-29T16:18:47.974Z,6.29
2022-11-29T16:21:29.742Z,6.26
2022-11-29T16:23:57.416Z,6.11
2022-11-29T16:26:30.214Z,6.05
2022-11-29T16:28:59.316Z,6.06
2022-11-29T16:31:37.661Z,6.04
2022-11-29T16:34:10.054Z,6.06
2022-11-29T16:36:36.921Z,6.15
2022-11-29T16:39:23.955Z,5.98
2022-11-29T16:42:14.891Z,5.94
2022-11-29T16:44:41.429Z,5.86
2022-11-29T16:47:25.806Z,5.93
2022-11-29T16:50:01.575Z,5.84
2022-11-29T16:52:30.315Z,5.87
2022-11-29T16:54:57.139Z,6.06
2022-11-29T16:57:24.700Z,6.00
2022-11-29T16:59:51.357Z,5.90
2022-11-29T17:02:18.447Z,6.14
2022-11-29T17:04:45.721Z,6.26
2022-11-29T17:07:22.815Z,6.11
2022-11-29T17:09:49.501Z,6.16
2022-11-29T17:12:16.235Z,6.01
2022-11-29T17:14:43.029Z,6.24
2022-11-29T17:17:14.437Z,6.06
2022-11-29T17:19:41.114Z,6.08
2022-11-29T17:22:07.648Z,6.29
2022-11-29T17:24:34.210Z,6.12
2022-11-29T17:27:00.776Z,6.07
2022-11-29T17:29:27.410Z,6.04
2022-11-29T17:31:54.054Z,6.19
2022-11-29T17:34:20.746Z,6.17
2022-11-29T17:36:47.310Z,6.12
2022-11-29T17:39:15.559Z,6.13
2022-11-29T17:41:42.428Z,6.08
2022-11-29T17:44:09.476Z,6.23
2022-11-29T17:46:36.957Z,6.04
2022-11-29T17:49:09.748Z,6.13
2022-11-29T17:51:54.304Z,5.95
2022-11-29T17:54:21.868Z,6.04
2022-11-29T17:56:48.539Z,6.18
2022-11-29T17:59:15.075Z,6.01
2022-11-29T18:01:41.843Z,6.00
2022-11-29T18:04:27.032Z,6.05
2022-11-29T18:07:13.231Z,5.66
2022-11-29T18:10:00.160Z,5.64
2022-11-29T18:12:47.042Z,5.69
2022-11-29T18:15:33.927Z,5.82
2022-11-29T18:18:20.792Z,5.96
2022-11-29T18:21:10.165Z,5.96
2022-11-29T18:24:00.038Z,5.94
2022-11-29T18:26:47.405Z,5.98
2022-11-29T18:29:38.874Z,5.83
2022-11-29T18:32:27.420Z,5.83
2022-11-29T18:35:14.264Z,5.52
2022-11-29T18:38:16.882Z,5.35
2022-11-29T18:41:18.077Z,5.59
2022-11-29T18:44:11.177Z,5.73
2022-11-29T18:46:58.101Z,5.79
2022-11-29T18:49:44.984Z,5.82
2022-11-29T18:52:35.304Z,5.63
2022-11-29T18:55:25.767Z,5.42
2022-11-29T18:58:12.572Z,5.50
2022-11-29T19:01:16.850Z,5.34
2022-11-29T19:04:03.811Z,5.28
2022-11-29T19:06:50.656Z,5.25
2022-11-29T19:09:37.454Z,5.49
2022-11-29T19:12:24.259Z,5.44
2022-11-29T19:15:11.162Z,5.43
2022-11-29T19:17:57.975Z,5.40
2022-11-29T19:20:44.800Z,5.50
2022-11-29T19:23:31.776Z,5.33
2022-11-29T19:26:19.009Z,5.31
2022-11-29T19:29:06.050Z,5.31
2022-11-29T19:31:52.857Z,5.29
2022-11-29T19:34:39.697Z,5.48
2022-11-29T19:37:26.558Z,5.59
2022-11-29T19:40:13.624Z,5.43
2022-11-29T19:43:00.535Z,5.31
2022-11-29T19:45:47.450Z,5.23
2022-11-29T19:48:34.378Z,5.26
2022-11-29T19:51:22.101Z,5.22
2022-11-29T19:54:10.672Z,5.12
2022-11-29T19:56:58.645Z,5.24
2022-11-29T19:59:45.722Z,5.32
2022-11-29T20:02:33.003Z,5.42
2022-11-29T20:05:19.969Z,5.33
2022-11-29T20:08:07.045Z,5.41
2022-11-29T20:13:34.674Z,5.40
2022-11-29T20:16:22.044Z,5.26
2022-11-29T20:19:16.727Z,5.23
2022-11-29T20:22:03.547Z,5.17
2022-11-29T20:24:50.334Z,5.20
2022-11-29T20:27:37.121Z,5.34
2022-11-29T20:30:23.958Z,5.32
2022-11-29T20:33:17.443Z,5.42
2022-11-29T20:36:25.306Z,5.36
2022-11-29T20:39:36.854Z,5.17
2022-11-29T20:42:44.324Z,5.06
2022-11-29T20:45:31.500Z,5.18
2022-11-29T20:48:21.615Z,5.21
2022-11-29T20:51:10.600Z,5.16
2022-11-29T20:53:58.816Z,5.20
2022-11-29T20:56:47.785Z,5.26
2022-11-29T20:59:34.616Z,5.29
2022-11-29T21:02:22.504Z,5.32
2022-11-29T21:05:09.990Z,5.25
2022-11-29T21:07:56.877Z,5.38
2022-11-29T21:10:43.933Z,5.32
2022-11-29T21:13:30.938Z,5.28
2022-11-29T21:16:18.028Z,4.85
2022-11-29T21:19:05.220Z,4.64
2022-11-29T21:22:03.068Z,4.62
2022-11-29T21:24:55.576Z,4.53
2022-11-29T21:27:42.610Z,4.74
2022-11-29T21:30:29.603Z,5.02
2022-11-29T21:33:16.629Z,4.84
2022-11-29T21:36:06.068Z,4.84
2022-11-29T21:38:55.311Z,5.03
2022-11-29T21:41:42.982Z,4.76
2022-11-29T21:44:29.785Z,4.96
2022-11-29T21:47:16.614Z,4.87
2022-11-29T21:50:04.098Z,5.08
2022-11-29T21:52:52.209Z,4.96
2022-11-29T21:55:38.986Z,5.06
2022-11-29T21:58:28.039Z,5.04
2022-11-29T22:01:17.374Z,5.38
2022-11-29T22:04:04.430Z,5.49
2022-11-29T22:06:51.276Z,5.58
2022-11-29T22:09:38.198Z,5.63
2022-11-29T22:12:34.293Z,5.59
2022-11-29T22:15:24.893Z,5.50
2022-11-29T22:18:13.129Z,5.38
2022-11-29T22:21:04.838Z,5.38
2022-11-29T22:23:52.330Z,5.47
2022-11-29T22:26:40.020Z,5.34
2022-11-29T22:29:27.685Z,5.34
2022-11-29T22:32:14.536Z,5.41
2022-11-29T22:35:01.369Z,5.46
2022-11-29T22:37:48.165Z,5.50
2022-11-29T22:40:34.967Z,5.58
2022-11-29T22:43:21.743Z,5.38
2022-11-29T22:46:14.024Z,5.39
2022-11-29T22:49:01.676Z,5.17
2022-11-29T22:51:48.582Z,5.36
2022-11-29T22:54:35.384Z,5.44
2022-11-29T22:57:22.159Z,5.37
2022-11-29T23:00:09.948Z,5.55
2022-11-29T23:02:57.650Z,5.63
2022-11-29T23:05:45.163Z,5.66
2022-11-29T23:08:32.325Z,5.42
2022-11-29T23:11:25.425Z,5.40
2022-11-29T23:14:12.753Z,5.41
2022-11-29T23:16:59.577Z,5.58
2022-11-29T23:19:46.373Z,5.55
2022-11-29T23:22:38.549Z,5.32
2022-11-29T23:25:25.331Z,5.34
2022-11-29T23:28:12.135Z,5.54
2022-11-29T23:30:59.638Z,5.57
2022-11-29T23:33:46.475Z,5.42
2022-11-29T23:36:33.886Z,5.50
2022-11-29T23:39:23.687Z,5.47
2022-11-29T23:42:10.568Z,5.42
2022-11-29T23:44:57.406Z,5.60
2022-11-29T23:47:44.260Z,5.57
2022-11-29T23:50:31.080Z,5.61
2022-11-29T23:53:18.688Z,5.71
2022-11-29T23:56:16.961Z,5.52
2022-11-29T23:59:03.868Z,5.51
